US Aviators Van Nuys Flight School Los Angeles Pilot school at Van Nuys Simulator Flight Training Profesional Pilot Instruction Learn to Fly

U.S. Aviators

Learn to fly here! (818) 779-2105

Weather at Van Nuys Airport

Observed:Mon Nov 30, 20:51 PST
Age:47 min ago
Wind:NNW at 2 mph
Visibility:10 miles
Clouds:Clear skies
Temperature:48°F (9°C)
Dewpoint:36°F (2°C)
Barometer:1020 hPa (30.12 in Hg)


KVNY 010451Z 33004KT 10SM CLR 09/02 A3012 RMK AO2 SLP198 T00940017